createdAt,value
2023-05-04T00:00:39.828Z,205.89
2023-05-04T00:01:39.838Z,203.68
2023-05-04T00:02:39.908Z,205.30
2023-05-04T00:03:39.960Z,204.57
2023-05-04T00:04:39.880Z,204.11
2023-05-04T00:05:39.915Z,205.50
2023-05-04T00:06:39.907Z,204.95
2023-05-04T00:07:39.917Z,203.69
2023-05-04T00:08:39.917Z,204.65
2023-05-04T00:09:39.959Z,204.76
2023-05-04T00:10:40.021Z,205.49
2023-05-04T00:11:39.989Z,206.01
2023-05-04T00:12:40.015Z,205.51
2023-05-04T00:13:40.008Z,204.98
2023-05-04T00:14:40.077Z,205.77
2023-05-04T00:15:40.056Z,204.85
2023-05-04T00:16:40.568Z,205.15
2023-05-04T00:17:40.114Z,205.63
2023-05-04T00:18:40.154Z,205.64
2023-05-04T00:19:40.148Z,205.97
2023-05-04T00:20:40.159Z,206.36
2023-05-04T00:21:40.145Z,204.76
2023-05-04T00:22:40.156Z,205.95
2023-05-04T00:23:40.239Z,205.50
2023-05-04T00:24:40.178Z,204.06
2023-05-04T00:25:40.213Z,207.08
2023-05-04T00:26:40.217Z,206.39
2023-05-04T00:27:40.230Z,204.81
2023-05-04T00:28:40.245Z,205.88
2023-05-04T00:29:40.279Z,206.91
2023-05-04T00:30:40.274Z,205.18
2023-05-04T00:31:40.324Z,205.06
2023-05-04T00:32:40.346Z,206.15
2023-05-04T00:33:40.330Z,206.07
2023-05-04T00:34:40.337Z,205.49
2023-05-04T00:35:40.370Z,204.97
2023-05-04T00:36:40.362Z,204.97
2023-05-04T00:37:40.364Z,205.84
2023-05-04T00:38:40.381Z,205.49
2023-05-04T00:39:40.391Z,205.55
2023-05-04T00:40:40.435Z,206.00
2023-05-04T00:41:40.445Z,205.86
2023-05-04T00:42:40.450Z,206.92
2023-05-04T00:43:40.453Z,206.69
2023-05-04T00:44:40.504Z,204.95
2023-05-04T00:45:40.547Z,206.34
2023-05-04T00:46:40.611Z,204.69
2023-05-04T00:47:40.594Z,207.59
2023-05-04T00:48:40.570Z,205.12
2023-05-04T00:49:40.561Z,205.81
2023-05-04T00:50:40.600Z,205.67
2023-05-04T00:51:40.616Z,205.65
2023-05-04T00:52:40.648Z,207.36
2023-05-04T00:53:40.668Z,205.47
2023-05-04T00:54:40.671Z,205.66
2023-05-04T00:55:40.705Z,205.66
2023-05-04T00:56:40.749Z,205.27
2023-05-04T00:57:40.737Z,205.81
2023-05-04T00:58:40.719Z,206.69
2023-05-04T00:59:40.749Z,205.83
2023-05-04T01:00:40.826Z,206.37
2023-05-04T01:01:40.791Z,206.48
2023-05-04T01:02:40.872Z,206.10
2023-05-04T01:03:40.875Z,207.73
2023-05-04T01:04:40.877Z,204.58
2023-05-04T01:05:40.862Z,206.99
2023-05-04T01:06:40.905Z,206.22
2023-05-04T01:07:40.919Z,206.77
2023-05-04T01:08:40.955Z,208.34
2023-05-04T01:09:41.069Z,205.91
2023-05-04T01:10:40.978Z,206.41
2023-05-04T01:11:40.998Z,206.11
2023-05-04T01:12:41.039Z,205.59
2023-05-04T01:13:41.008Z,207.83
2023-05-04T01:14:41.066Z,206.08
2023-05-04T01:15:41.068Z,207.27
2023-05-04T01:16:41.079Z,205.78
2023-05-04T01:17:41.108Z,207.53
2023-05-04T01:18:41.122Z,207.10
2023-05-04T01:19:41.104Z,206.93
2023-05-04T01:20:41.116Z,206.11
2023-05-04T01:21:41.147Z,206.32
2023-05-04T01:22:41.165Z,206.23
2023-05-04T01:23:41.197Z,205.59
2023-05-04T01:24:41.234Z,206.61
2023-05-04T01:25:41.205Z,207.01
2023-05-04T01:26:41.252Z,207.16
2023-05-04T01:27:41.240Z,207.56
2023-05-04T01:28:41.262Z,206.55
2023-05-04T01:29:41.333Z,207.47
2023-05-04T01:30:41.318Z,205.95
2023-05-04T01:31:41.311Z,205.88
2023-05-04T01:32:41.546Z,206.14
2023-05-04T01:33:41.352Z,204.87
2023-05-04T01:34:41.416Z,204.17
2023-05-04T01:35:41.391Z,205.50
2023-05-04T01:36:41.470Z,207.34
2023-05-04T01:37:41.450Z,205.98
2023-05-04T01:38:41.494Z,205.35
2023-05-04T01:39:41.500Z,205.57
2023-05-04T01:40:41.538Z,207.30
2023-05-04T01:41:41.506Z,206.44
2023-05-04T01:42:41.572Z,205.31
2023-05-04T01:43:41.560Z,206.77
2023-05-04T01:44:41.598Z,206.45
2023-05-04T01:45:41.591Z,205.95
2023-05-04T01:46:41.672Z,207.01
2023-05-04T01:47:41.699Z,206.77
2023-05-04T01:48:41.676Z,205.95
2023-05-04T01:49:41.675Z,207.63
2023-05-04T01:50:41.688Z,206.69
2023-05-04T01:51:41.741Z,205.80
2023-05-04T01:52:41.749Z,206.39
2023-05-04T01:53:41.747Z,207.16
2023-05-04T01:54:41.746Z,207.26
2023-05-04T01:55:41.853Z,208.32
2023-05-04T01:56:41.814Z,206.52
2023-05-04T01:57:41.808Z,207.66
2023-05-04T01:58:41.864Z,206.25
2023-05-04T01:59:41.853Z,206.31
2023-05-04T02:00:41.854Z,207.98
2023-05-04T02:01:42.023Z,205.86
2023-05-04T02:02:41.938Z,207.47
2023-05-04T02:03:41.994Z,205.79
2023-05-04T02:04:41.950Z,207.00
2023-05-04T02:05:41.947Z,208.09
2023-05-04T02:06:41.985Z,205.57
2023-05-04T02:07:42.003Z,207.73
2023-05-04T02:08:42.008Z,207.73
2023-05-04T02:09:42.016Z,209.21
2023-05-04T02:10:42.037Z,205.89
2023-05-04T02:11:42.107Z,206.66
2023-05-04T02:12:42.116Z,206.71
2023-05-04T02:13:42.107Z,206.58
2023-05-04T02:14:42.136Z,207.61
2023-05-04T02:15:42.201Z,207.43
2023-05-04T02:16:42.183Z,208.66
2023-05-04T02:17:42.333Z,206.78
2023-05-04T02:18:43.054Z,208.20
2023-05-04T02:19:43.080Z,208.45
2023-05-04T02:20:42.218Z,207.96
2023-05-04T02:21:42.262Z,206.71
2023-05-04T02:22:42.259Z,208.50
2023-05-04T02:23:42.291Z,207.56
2023-05-04T02:24:42.327Z,207.06
2023-05-04T02:25:42.324Z,207.52
2023-05-04T02:26:42.421Z,207.09
2023-05-04T02:27:42.379Z,207.46
2023-05-04T02:28:42.428Z,208.10
2023-05-04T02:29:42.481Z,206.94
2023-05-04T02:30:42.423Z,208.09
2023-05-04T02:31:42.560Z,207.94
2023-05-04T02:32:42.715Z,207.23
2023-05-04T02:33:42.451Z,207.95
2023-05-04T02:34:42.498Z,205.95
2023-05-04T02:35:42.498Z,207.27
2023-05-04T02:36:42.595Z,208.34
2023-05-04T02:37:42.591Z,208.43
2023-05-04T02:38:42.582Z,207.35
2023-05-04T02:39:42.599Z,207.31
2023-05-04T02:40:42.606Z,207.29
2023-05-04T02:41:42.639Z,207.53
2023-05-04T02:42:42.696Z,206.81
2023-05-04T02:43:42.729Z,207.00
2023-05-04T02:44:42.673Z,207.92
2023-05-04T02:45:42.764Z,207.79
2023-05-04T02:46:42.737Z,206.84
2023-05-04T02:47:42.880Z,207.56
2023-05-04T02:48:42.776Z,206.46
2023-05-04T02:49:42.799Z,207.09
2023-05-04T02:50:42.845Z,208.24
2023-05-04T02:51:42.829Z,207.24
2023-05-04T02:52:42.889Z,207.59
2023-05-04T02:53:42.908Z,206.58
2023-05-04T02:54:42.872Z,208.13
2023-05-04T02:55:42.895Z,206.26
2023-05-04T02:56:42.922Z,206.93
2023-05-04T02:57:42.976Z,207.62
2023-05-04T02:58:42.963Z,208.07
2023-05-04T02:59:42.997Z,207.46
2023-05-04T03:00:43.002Z,206.91
2023-05-04T03:01:43.073Z,207.41
2023-05-04T03:02:43.108Z,208.01
2023-05-04T03:03:43.056Z,207.24
2023-05-04T03:04:43.134Z,206.92
2023-05-04T03:05:43.195Z,206.64
2023-05-04T03:06:43.126Z,205.73
2023-05-04T03:07:43.187Z,208.27
2023-05-04T03:08:43.169Z,208.87
2023-05-04T03:09:44.219Z,208.97
2023-05-04T03:10:43.201Z,208.47
2023-05-04T03:11:43.244Z,208.05
2023-05-04T03:12:43.296Z,207.86
2023-05-04T03:13:43.336Z,204.33
2023-05-04T03:14:43.287Z,207.72
2023-05-04T03:15:43.330Z,209.13
2023-05-04T03:16:43.397Z,208.13
2023-05-04T03:17:43.406Z,206.59
2023-05-04T03:18:43.381Z,207.71
2023-05-04T03:19:43.421Z,208.43
2023-05-04T03:20:43.415Z,207.32
2023-05-04T03:21:43.443Z,207.72
2023-05-04T03:22:43.459Z,209.49
2023-05-04T03:23:43.475Z,207.15
2023-05-04T03:24:43.486Z,208.88
2023-05-04T03:25:43.558Z,207.68
2023-05-04T03:26:43.519Z,206.46
2023-05-04T03:27:43.554Z,210.42
2023-05-04T03:28:43.564Z,207.52
2023-05-04T03:29:43.586Z,207.27
2023-05-04T03:30:43.622Z,207.38
2023-05-04T03:31:43.695Z,206.25
2023-05-04T03:32:43.647Z,208.42
2023-05-04T03:33:43.706Z,205.85
2023-05-04T03:34:43.668Z,206.36
2023-05-04T03:35:43.690Z,208.80
2023-05-04T03:36:43.718Z,209.73
2023-05-04T03:37:43.732Z,206.79
2023-05-04T03:38:43.744Z,208.68
2023-05-04T03:39:44.632Z,207.31
2023-05-04T03:40:43.787Z,208.76
2023-05-04T03:41:43.824Z,208.11
2023-05-04T03:42:43.841Z,206.96
2023-05-04T03:43:43.845Z,207.64
2023-05-04T03:44:43.854Z,207.42
2023-05-04T03:45:43.930Z,208.88
2023-05-04T03:46:43.899Z,207.77
2023-05-04T03:47:43.982Z,209.68
2023-05-04T03:48:43.934Z,208.22
2023-05-04T03:49:43.951Z,209.56
2023-05-04T03:50:43.974Z,207.09
2023-05-04T03:51:43.989Z,206.69
2023-05-04T03:52:44.024Z,207.14
2023-05-04T03:53:44.847Z,208.58
2023-05-04T03:54:44.052Z,208.63
2023-05-04T03:55:44.065Z,206.85
2023-05-04T03:56:44.146Z,208.11
2023-05-04T03:57:44.157Z,208.72
2023-05-04T03:58:44.176Z,207.62
2023-05-04T03:59:44.202Z,208.76
2023-05-04T04:00:44.229Z,208.66
2023-05-04T04:01:44.212Z,207.84
2023-05-04T04:02:44.337Z,207.30
2023-05-04T04:03:44.299Z,208.23
2023-05-04T04:04:44.406Z,210.08
2023-05-04T04:05:44.300Z,207.91
2023-05-04T04:06:44.322Z,207.09
2023-05-04T04:07:44.340Z,207.13
2023-05-04T04:08:44.373Z,206.82
2023-05-04T04:09:44.385Z,206.83
2023-05-04T04:10:44.398Z,209.10
2023-05-04T04:11:44.415Z,208.32
2023-05-04T04:12:44.508Z,208.10
2023-05-04T04:13:44.512Z,207.08
2023-05-04T04:14:44.481Z,205.87
2023-05-04T04:15:44.586Z,207.85
2023-05-04T04:16:44.714Z,206.25
2023-05-04T04:17:44.588Z,207.90
2023-05-04T04:18:44.595Z,209.17
2023-05-04T04:19:44.608Z,207.92
2023-05-04T04:20:44.629Z,208.28
2023-05-04T04:21:44.634Z,207.01
2023-05-04T04:22:44.675Z,207.82
2023-05-04T04:23:44.689Z,208.72
2023-05-04T04:24:44.687Z,207.47
2023-05-04T04:25:44.720Z,209.52
2023-05-04T04:26:44.747Z,206.63
2023-05-04T04:27:44.757Z,207.78
2023-05-04T04:28:44.806Z,206.98
2023-05-04T04:29:44.800Z,208.11
2023-05-04T04:30:44.821Z,207.31
2023-05-04T04:31:44.866Z,208.46
2023-05-04T04:32:44.905Z,206.31
2023-05-04T04:33:44.908Z,207.10
2023-05-04T04:34:44.899Z,208.31
2023-05-04T04:35:44.967Z,207.08
2023-05-04T04:36:44.974Z,206.86
2023-05-04T04:37:45.010Z,207.30
2023-05-04T04:38:44.995Z,206.98
2023-05-04T04:39:45.030Z,206.82
2023-05-04T04:40:45.062Z,210.25
2023-05-04T04:41:45.066Z,206.57
2023-05-04T04:42:45.091Z,206.41
2023-05-04T04:43:45.107Z,206.18
2023-05-04T04:44:45.130Z,207.10
2023-05-04T04:45:45.188Z,208.22
2023-05-04T04:46:45.183Z,208.76
2023-05-04T04:47:45.336Z,208.69
2023-05-04T04:48:45.201Z,207.72
2023-05-04T04:49:45.221Z,206.49
2023-05-04T04:50:45.232Z,208.33
2023-05-04T04:51:45.266Z,206.93
2023-05-04T04:52:45.279Z,206.92
2023-05-04T04:53:45.291Z,207.48
2023-05-04T04:54:45.386Z,205.23
2023-05-04T04:55:45.340Z,205.39
2023-05-04T04:56:45.351Z,207.18
2023-05-04T04:57:45.481Z,208.10
2023-05-04T04:58:45.387Z,207.11
2023-05-04T04:59:45.448Z,207.20
2023-05-04T05:00:45.526Z,207.02
2023-05-04T05:01:45.453Z,206.52
2023-05-04T05:02:45.501Z,208.11
2023-05-04T05:03:45.480Z,208.15
2023-05-04T05:04:45.533Z,206.33
2023-05-04T05:05:45.569Z,208.67
2023-05-04T05:06:45.557Z,205.07
2023-05-04T05:07:45.574Z,205.52
2023-05-04T05:08:45.614Z,206.74
2023-05-04T05:09:45.642Z,204.69
2023-05-04T05:10:45.609Z,206.57
2023-05-04T05:11:45.685Z,205.87
2023-05-04T05:12:45.680Z,205.70
2023-05-04T05:13:45.716Z,207.49
2023-05-04T05:14:45.733Z,204.06
2023-05-04T05:15:45.704Z,204.35
2023-05-04T05:16:45.785Z,204.69
2023-05-04T05:17:45.776Z,206.43
2023-05-04T05:18:45.813Z,205.42
2023-05-04T05:19:45.826Z,207.35
2023-05-04T05:20:45.793Z,206.70
2023-05-04T05:21:45.968Z,204.91
2023-05-04T05:22:45.852Z,206.10
2023-05-04T05:23:45.909Z,207.75
2023-05-04T05:24:46.065Z,205.58
2023-05-04T05:25:46.102Z,206.94
2023-05-04T05:26:46.130Z,204.61
2023-05-04T05:27:46.190Z,206.66
2023-05-04T05:28:46.219Z,204.67
2023-05-04T05:29:46.277Z,205.64
2023-05-04T05:30:46.297Z,206.65
2023-05-04T05:31:46.341Z,206.50
2023-05-04T05:32:49.020Z,208.59
2023-05-04T05:33:46.294Z,206.53
2023-05-04T05:34:46.310Z,207.37
2023-05-04T05:35:46.353Z,210.07
2023-05-04T05:36:46.270Z,211.08
2023-05-04T05:37:46.684Z,211.08
2023-05-04T05:38:47.823Z,213.02
2023-05-04T05:39:46.311Z,213.19
2023-05-04T05:40:46.227Z,213.79
2023-05-04T05:41:46.294Z,216.89
2023-05-04T05:42:46.259Z,223.59
2023-05-04T05:43:46.225Z,231.40
2023-05-04T05:44:46.295Z,236.45
2023-05-04T05:45:46.354Z,240.42
2023-05-04T05:46:46.340Z,244.83
2023-05-04T05:47:46.405Z,250.00
2023-05-04T05:48:46.173Z,249.05
2023-05-04T05:49:46.600Z,247.79
2023-05-04T05:50:46.154Z,249.78
2023-05-04T05:51:46.200Z,249.92
2023-05-04T05:52:46.288Z,249.03
2023-05-04T05:53:46.154Z,249.54
2023-05-04T05:54:46.171Z,249.67
2023-05-04T05:55:46.140Z,249.70
2023-05-04T05:56:46.188Z,249.43
2023-05-04T05:57:46.117Z,248.52
2023-05-04T05:58:46.210Z,248.89
2023-05-04T05:59:46.112Z,250.00
2023-05-04T06:00:46.130Z,250.00
2023-05-04T06:01:46.093Z,250.00
2023-05-04T06:02:46.209Z,249.99
2023-05-04T06:03:46.277Z,250.00
2023-05-04T06:04:46.224Z,249.58
2023-05-04T06:05:46.079Z,248.29
2023-05-04T06:06:46.281Z,250.00
2023-05-04T06:07:46.068Z,250.21
2023-05-04T06:08:46.062Z,249.80
2023-05-04T06:09:46.093Z,249.66
2023-05-04T06:10:46.064Z,248.39
2023-05-04T06:11:46.069Z,248.38
2023-05-04T06:12:46.100Z,249.75
2023-05-04T06:13:46.017Z,248.24
2023-05-04T06:14:46.004Z,250.00
2023-05-04T06:15:46.081Z,250.00
2023-05-04T06:16:46.234Z,249.44
2023-05-04T06:17:46.012Z,250.00
2023-05-04T06:18:46.011Z,250.00
2023-05-04T06:19:46.772Z,249.88
2023-05-04T06:20:45.986Z,248.73
2023-05-04T06:21:45.962Z,249.14
2023-05-04T06:22:46.017Z,249.38
2023-05-04T06:23:46.034Z,249.88
2023-05-04T06:24:46.104Z,248.59
2023-05-04T06:25:46.137Z,249.08
2023-05-04T06:26:46.204Z,250.50
2023-05-04T06:27:46.204Z,249.46
2023-05-04T06:28:46.230Z,249.07
2023-05-04T06:29:46.292Z,250.51
2023-05-04T06:30:47.188Z,249.15
2023-05-04T06:31:48.070Z,250.00
2023-05-04T06:32:46.426Z,249.93
2023-05-04T06:33:46.427Z,249.68
2023-05-04T06:34:46.450Z,249.33
2023-05-04T06:35:46.510Z,248.59
2023-05-04T06:36:46.533Z,249.92
2023-05-04T06:37:46.765Z,250.00
2023-05-04T06:38:46.635Z,249.40
2023-05-04T06:39:46.760Z,247.32
2023-05-04T06:40:46.663Z,240.08
2023-05-04T06:41:46.678Z,234.34
2023-05-04T06:42:47.174Z,227.45
2023-05-04T06:43:46.841Z,223.09
2023-05-04T06:44:46.779Z,220.24
2023-05-04T06:45:46.884Z,218.95
2023-05-04T06:46:46.799Z,215.83
2023-05-04T06:47:47.248Z,216.84
2023-05-04T06:48:46.859Z,216.53
2023-05-04T06:49:46.892Z,218.23
2023-05-04T06:50:46.912Z,217.58
2023-05-04T06:51:46.925Z,216.32
2023-05-04T06:52:47.157Z,215.58
2023-05-04T06:53:47.005Z,216.29
2023-05-04T06:54:47.034Z,218.99
2023-05-04T06:55:47.095Z,219.56
2023-05-04T06:56:47.065Z,219.97
2023-05-04T06:57:47.094Z,220.41
2023-05-04T06:58:47.165Z,221.94
2023-05-04T06:59:47.195Z,224.76
2023-05-04T07:00:47.203Z,226.05
2023-05-04T07:01:47.230Z,225.28
2023-05-04T07:02:48.265Z,226.23
2023-05-04T07:03:48.283Z,226.91
2023-05-04T07:04:47.275Z,226.57
2023-05-04T07:05:47.277Z,227.17
2023-05-04T07:06:48.210Z,227.54
2023-05-04T07:07:48.105Z,228.85
2023-05-04T07:08:47.332Z,228.48
2023-05-04T07:09:47.311Z,228.64
2023-05-04T07:10:47.330Z,230.80
2023-05-04T07:11:47.339Z,231.52
2023-05-04T07:12:47.435Z,232.89
2023-05-04T07:13:47.371Z,233.40
2023-05-04T07:14:47.396Z,233.72
2023-05-04T07:15:47.433Z,235.05
2023-05-04T07:16:47.471Z,234.93
2023-05-04T07:17:47.554Z,235.35
2023-05-04T07:18:47.432Z,235.74
2023-05-04T07:19:47.440Z,237.26
2023-05-04T07:20:47.477Z,240.23
2023-05-04T07:21:47.487Z,239.75
2023-05-04T07:22:47.681Z,239.05
2023-05-04T07:23:47.525Z,240.96
2023-05-04T07:24:47.715Z,239.83
2023-05-04T07:25:47.653Z,239.91
2023-05-04T07:26:47.543Z,240.69
2023-05-04T07:27:47.583Z,242.01
2023-05-04T07:28:47.624Z,242.40
2023-05-04T07:29:47.629Z,243.26
2023-05-04T07:30:47.599Z,242.34
2023-05-04T07:31:47.743Z,242.37
2023-05-04T07:32:47.648Z,243.05
2023-05-04T07:33:47.669Z,241.01
2023-05-04T07:34:47.664Z,241.52
2023-05-04T07:35:47.664Z,238.59
2023-05-04T07:36:47.597Z,235.50
2023-05-04T07:37:47.686Z,237.44
2023-05-04T07:38:47.685Z,237.68
2023-05-04T07:39:47.699Z,237.53
2023-05-04T07:40:47.619Z,236.92
2023-05-04T07:41:49.569Z,237.11
2023-05-04T07:42:47.688Z,235.97
2023-05-04T07:43:47.716Z,233.37
2023-05-04T07:44:47.646Z,232.10
2023-05-04T07:45:47.686Z,229.71
2023-05-04T07:46:47.729Z,228.68
2023-05-04T07:47:47.741Z,226.07
2023-05-04T07:48:47.719Z,224.29
2023-05-04T07:49:47.721Z,222.34
2023-05-04T07:50:48.696Z,221.64
2023-05-04T07:51:48.717Z,219.95
2023-05-04T07:52:47.832Z,220.36
2023-05-04T07:53:47.816Z,219.77
2023-05-04T07:54:47.851Z,216.90
2023-05-04T07:55:48.326Z,216.32
2023-05-04T07:56:47.934Z,214.98
2023-05-04T07:57:48.121Z,215.13
2023-05-04T07:58:48.024Z,215.23
2023-05-04T07:59:47.975Z,215.03
2023-05-04T08:00:48.015Z,213.40
2023-05-04T08:01:48.074Z,213.87
2023-05-04T08:02:48.241Z,212.26
2023-05-04T08:03:48.162Z,210.75
2023-05-04T08:04:48.178Z,211.46
2023-05-04T08:05:48.211Z,210.39
2023-05-04T08:06:48.267Z,211.11
2023-05-04T08:07:48.446Z,210.27
2023-05-04T08:08:48.324Z,209.77
2023-05-04T08:09:48.473Z,210.05
2023-05-04T08:10:48.450Z,209.49
2023-05-04T08:11:48.619Z,208.28
2023-05-04T08:12:48.884Z,207.88
2023-05-04T08:13:48.523Z,208.47
2023-05-04T08:14:48.568Z,206.92
2023-05-04T08:15:48.683Z,206.57
2023-05-04T08:16:48.659Z,205.40
2023-05-04T08:17:49.245Z,204.97
2023-05-04T08:18:48.762Z,205.50
2023-05-04T08:19:48.759Z,205.34
2023-05-04T08:20:48.891Z,205.25
2023-05-04T08:21:48.862Z,204.77
2023-05-04T08:22:49.231Z,205.92
2023-05-04T08:23:48.947Z,207.71
2023-05-04T08:24:48.958Z,210.96
2023-05-04T08:25:49.169Z,211.27
2023-05-04T08:26:59.783Z,213.17
2023-05-04T08:27:50.231Z,213.08
2023-05-04T08:28:49.218Z,210.45
2023-05-04T08:29:49.770Z,208.50
2023-05-04T08:30:49.130Z,207.44
2023-05-04T08:31:49.033Z,208.16
2023-05-04T08:32:49.001Z,207.81
2023-05-04T08:33:48.977Z,205.43
2023-05-04T08:34:48.987Z,204.83
2023-05-04T08:35:48.956Z,203.72
2023-05-04T08:36:48.963Z,203.77
2023-05-04T08:37:49.232Z,201.51
2023-05-04T08:38:49.260Z,203.03
2023-05-04T08:39:48.986Z,202.39
2023-05-04T08:40:50.559Z,200.61
2023-05-04T08:41:49.167Z,202.01
2023-05-04T08:42:49.189Z,203.88
2023-05-04T08:43:49.146Z,205.55
2023-05-04T08:44:49.179Z,208.06
2023-05-04T08:45:49.214Z,211.38
2023-05-04T08:46:49.248Z,210.35
2023-05-04T08:47:49.299Z,210.31
2023-05-04T08:48:49.312Z,206.05
2023-05-04T08:49:49.338Z,206.57
2023-05-04T08:50:49.405Z,205.00
2023-05-04T08:51:49.460Z,203.83
2023-05-04T08:52:49.430Z,202.54
2023-05-04T08:53:49.441Z,202.59
2023-05-04T08:54:49.481Z,201.28
2023-05-04T08:55:49.488Z,199.12
2023-05-04T08:56:49.499Z,195.67
2023-05-04T08:57:51.098Z,181.88
2023-05-04T08:58:49.543Z,174.61
2023-05-04T08:59:49.551Z,174.03
2023-05-04T09:00:49.599Z,173.34
2023-05-04T09:01:49.660Z,171.94
2023-05-04T09:02:49.685Z,170.92
2023-05-04T09:03:49.841Z,172.22
2023-05-04T09:04:49.641Z,171.28
2023-05-04T09:05:49.673Z,170.37
2023-05-04T09:06:49.687Z,167.13
2023-05-04T09:07:49.664Z,163.99
2023-05-04T09:08:49.717Z,164.69
2023-05-04T09:09:49.695Z,164.58
2023-05-04T09:10:49.693Z,162.12
2023-05-04T09:11:49.698Z,160.71
2023-05-04T09:12:49.748Z,157.34
2023-05-04T09:13:49.749Z,156.50
2023-05-04T09:14:49.781Z,155.78
2023-05-04T09:15:49.762Z,155.11
2023-05-04T09:16:49.802Z,153.84
2023-05-04T09:17:57.776Z,153.46
2023-05-04T09:18:50.769Z,153.62
2023-05-04T09:19:49.741Z,153.78
2023-05-04T09:20:49.750Z,148.65
2023-05-04T09:21:51.279Z,150.89
2023-05-04T09:22:49.749Z,150.67
2023-05-04T09:23:49.734Z,150.59
2023-05-04T09:24:49.715Z,149.17
2023-05-04T09:25:49.736Z,150.45
2023-05-04T09:26:49.718Z,147.71
2023-05-04T09:27:49.710Z,147.38
2023-05-04T09:28:49.683Z,146.94
2023-05-04T09:29:49.754Z,147.93
2023-05-04T09:30:49.833Z,146.15
2023-05-04T09:31:49.684Z,146.76
2023-05-04T09:32:49.893Z,145.71
2023-05-04T09:33:51.982Z,146.39
2023-05-04T09:34:49.663Z,146.47
2023-05-04T09:35:49.623Z,146.83
2023-05-04T09:36:49.630Z,146.74
2023-05-04T09:37:49.745Z,142.53
2023-05-04T09:38:49.611Z,154.01
2023-05-04T09:39:49.660Z,170.23
2023-05-04T09:40:49.679Z,178.82
2023-05-04T09:41:49.572Z,173.23
2023-05-04T09:42:49.595Z,167.99
2023-05-04T09:43:49.607Z,163.50
2023-05-04T09:44:49.571Z,158.77
2023-05-04T09:45:49.570Z,148.83
2023-05-04T09:46:49.584Z,109.16
2023-05-04T09:47:49.614Z,98.68
2023-05-04T09:48:49.560Z,100.58
2023-05-04T09:49:49.532Z,106.45
2023-05-04T09:50:49.529Z,121.02
2023-05-04T09:51:49.493Z,128.75
2023-05-04T09:52:49.547Z,130.82
2023-05-04T09:53:49.536Z,132.36
2023-05-04T09:54:49.499Z,132.50
2023-05-04T09:55:49.470Z,136.15
2023-05-04T09:56:49.492Z,145.83
2023-05-04T09:57:49.502Z,159.59
2023-05-04T09:58:49.496Z,152.73
2023-05-04T09:59:49.490Z,151.85
2023-05-04T10:00:49.456Z,150.32
2023-05-04T10:01:49.659Z,151.44
2023-05-04T10:02:49.533Z,157.28
2023-05-04T10:03:49.542Z,160.94
2023-05-04T10:04:49.424Z,162.48
2023-05-04T10:05:49.412Z,161.99
2023-05-04T10:06:49.412Z,163.49
2023-05-04T10:07:49.394Z,165.53
2023-05-04T10:08:49.385Z,231.55
2023-05-04T10:09:49.415Z,245.71
2023-05-04T10:10:49.392Z,231.03
2023-05-04T10:11:49.364Z,220.63
2023-05-04T10:12:49.425Z,209.67
2023-05-04T10:13:49.348Z,197.86
2023-05-04T10:14:49.346Z,204.06
2023-05-04T10:15:49.378Z,200.56
2023-05-04T10:16:49.342Z,200.81
2023-05-04T10:17:49.455Z,199.19
2023-05-04T10:18:49.328Z,196.46
2023-05-04T10:19:49.299Z,194.67
2023-05-04T10:20:49.319Z,194.50
2023-05-04T10:21:49.350Z,194.00
2023-05-04T10:22:49.285Z,193.69
2023-05-04T10:23:49.332Z,196.47
2023-05-04T10:24:49.327Z,195.83
2023-05-04T10:25:49.260Z,197.31
2023-05-04T10:26:49.353Z,173.77
2023-05-04T10:27:49.280Z,188.36
2023-05-04T10:28:49.285Z,190.47
2023-05-04T10:29:49.275Z,155.55
2023-05-04T10:30:49.257Z,165.61
2023-05-04T10:31:49.297Z,164.90
2023-05-04T10:32:49.243Z,161.70
2023-05-04T10:33:49.314Z,165.82
2023-05-04T10:34:49.291Z,161.05
2023-05-04T10:35:49.265Z,128.04
2023-05-04T10:36:49.211Z,126.17
2023-05-04T10:37:49.224Z,99.40
2023-05-04T10:38:49.196Z,89.33
2023-05-04T10:39:49.213Z,88.59
2023-05-04T10:40:49.187Z,79.92
2023-05-04T10:41:49.228Z,78.45
2023-05-04T10:42:49.161Z,72.61
2023-05-04T10:43:49.244Z,71.65
2023-05-04T10:44:49.170Z,66.03
2023-05-04T10:45:49.171Z,58.16
2023-05-04T10:46:49.137Z,49.20
2023-05-04T10:47:49.155Z,52.47
2023-05-04T10:48:49.137Z,51.69
2023-05-04T10:49:49.232Z,53.33
2023-05-04T10:50:49.117Z,53.78
2023-05-04T10:51:49.757Z,45.94
2023-05-04T10:52:49.226Z,46.28
2023-05-04T10:53:49.097Z,49.10
2023-05-04T10:54:49.083Z,47.57
2023-05-04T10:55:49.135Z,36.32
2023-05-04T10:56:49.128Z,6.06
2023-05-04T10:57:49.096Z,25.00
2023-05-04T10:58:49.070Z,47.32
2023-05-04T10:59:49.057Z,40.36
2023-05-04T11:00:49.059Z,36.25
2023-05-04T11:01:49.020Z,48.35
2023-05-04T11:02:49.098Z,70.03
2023-05-04T11:03:49.087Z,80.00
2023-05-04T11:04:49.060Z,48.76
2023-05-04T11:05:49.049Z,43.04
2023-05-04T11:06:49.010Z,67.16
2023-05-04T11:07:49.002Z,76.54
2023-05-04T11:08:49.020Z,83.38
2023-05-04T11:09:49.002Z,69.95
2023-05-04T11:10:48.986Z,49.33
2023-05-04T11:11:48.993Z,55.21
2023-05-04T11:12:49.046Z,64.04
2023-05-04T11:13:48.930Z,68.60
2023-05-04T11:14:48.950Z,65.17
2023-05-04T11:15:48.956Z,73.29
2023-05-04T11:16:49.160Z,64.99
2023-05-04T11:17:48.987Z,53.28
2023-05-04T11:18:48.926Z,49.18
2023-05-04T11:19:48.925Z,54.51
2023-05-04T11:20:48.903Z,51.56
2023-05-04T11:21:48.920Z,31.70
2023-05-04T11:22:49.004Z,41.09
2023-05-04T11:23:48.880Z,42.63
2023-05-04T11:24:49.110Z,28.56
2023-05-04T11:25:48.859Z,38.44
2023-05-04T11:26:48.853Z,45.27
2023-05-04T11:27:48.852Z,51.80
2023-05-04T11:28:48.962Z,44.50
2023-05-04T11:29:48.877Z,51.96
2023-05-04T11:30:48.833Z,49.12
2023-05-04T11:31:48.920Z,38.14
2023-05-04T11:32:48.902Z,42.29
2023-05-04T11:33:48.883Z,36.62
2023-05-04T11:34:48.817Z,41.12
2023-05-04T11:35:48.806Z,41.85
2023-05-04T11:36:49.886Z,51.50
2023-05-04T11:37:48.800Z,43.56
2023-05-04T11:38:48.790Z,42.38
2023-05-04T11:39:48.769Z,45.02
2023-05-04T11:40:48.770Z,42.88
2023-05-04T11:41:48.820Z,40.23
2023-05-04T11:42:48.829Z,37.60
2023-05-04T11:43:48.807Z,49.10
2023-05-04T11:44:48.744Z,57.77
2023-05-04T11:45:48.768Z,53.80
2023-05-04T11:46:48.785Z,58.77
2023-05-04T11:47:48.847Z,49.68
2023-05-04T11:48:48.811Z,68.72
2023-05-04T11:49:48.707Z,63.15
2023-05-04T11:50:48.711Z,63.46
2023-05-04T11:51:48.688Z,61.43
2023-05-04T11:52:48.685Z,64.26
2023-05-04T11:53:48.702Z,63.58
2023-05-04T11:54:48.715Z,62.15
2023-05-04T11:55:48.678Z,64.46
2023-05-04T11:56:48.680Z,66.34
2023-05-04T11:57:48.662Z,66.08
2023-05-04T11:58:48.678Z,72.98
2023-05-04T11:59:48.651Z,69.00
2023-05-04T12:00:48.635Z,71.46
2023-05-04T12:01:48.636Z,67.75
2023-05-04T12:02:48.831Z,65.80
2023-05-04T12:03:53.656Z,69.83
2023-05-04T12:04:48.877Z,64.90
2023-05-04T12:05:48.928Z,63.86
2023-05-04T12:06:48.838Z,70.50
2023-05-04T12:07:48.909Z,71.19
2023-05-04T12:08:48.950Z,74.71
2023-05-04T12:09:49.015Z,68.86
2023-05-04T12:10:48.897Z,74.86
2023-05-04T12:11:48.879Z,71.73
2023-05-04T12:12:48.913Z,71.60
2023-05-04T12:13:48.886Z,63.63
2023-05-04T12:14:48.916Z,70.18
2023-05-04T12:15:48.894Z,60.03
2023-05-04T12:16:48.981Z,52.71
2023-05-04T12:17:48.955Z,51.15
2023-05-04T12:18:48.956Z,63.31
2023-05-04T12:19:48.973Z,64.82
2023-05-04T12:20:48.943Z,64.85
2023-05-04T12:21:48.943Z,57.09
2023-05-04T12:22:48.976Z,56.82
2023-05-04T12:23:48.994Z,67.52
2023-05-04T12:24:49.073Z,67.43
2023-05-04T12:25:57.691Z,58.51
2023-05-04T12:26:49.977Z,59.02
2023-05-04T12:27:48.960Z,60.38
2023-05-04T12:28:48.993Z,62.63
2023-05-04T12:29:48.936Z,68.14
2023-05-04T12:30:48.909Z,62.70
2023-05-04T12:31:48.970Z,60.38
2023-05-04T12:32:48.953Z,60.68